Station: EHBK - 26/09/2017 01:25Z (il y a 21 minutes)
EHBK 260125Z AUTO 10004KT 9999 NSC 12/11 Q1020
Vent du 100º - 4 kt
Visibilité > 10 km
Pas de nuages significatifs
Température: +12ºC - Point de rosée: +11ºC - QNH: 1020 hPa